Bluegrove, Texas
Current Conditions -  °F | °C
As of 11:15 AM on Friday 24 Oct 2014 (Local Time) from KCWC Reporting Station
Clear Clear  
Wind Chill: 25°   Ceiling: Unl
Heat Index: 26°   Visibility: 10mi
Dew Point: 16°   Wind: 10mph
Humidity: 59%   Direction: 230°SW
Pressure: 30.14"   Gusts: NA
Location:  33.67°N, 98.23°W
Report Text: KCWC 241615Z AUTO 23009KT 10SM CLR 25/16 A3014 RMK AO2 T02450160
Loading
Personal Weather Stations






























Interactive Weather Map
Tropical Storm Tracking
New forecast layout! Learn more

10-Day Weather Forecast

Advertisements
Track Severe Weather on mobile